createdAt,value
2022-09-22T04:48:55.624Z,2.25
2022-09-22T05:03:50.363Z,2.36
2022-09-22T05:33:53.146Z,1.73
2022-09-22T05:50:35.391Z,1.9
2022-09-22T06:03:51.036Z,9.36
2022-09-22T06:19:27.588Z,5.78
2022-09-22T06:33:50.222Z,5.69
2022-09-22T06:48:48.706Z,5.86
2022-09-22T07:03:51.488Z,11.21
2022-09-22T09:03:49.358Z,1.23
2022-09-22T09:18:49.644Z,0.87
2022-09-22T09:33:49.321Z,0.76
2022-09-22T09:48:50.582Z,2.04
2022-09-22T10:03:49.153Z,0.99
2022-09-22T10:18:50.064Z,1.01
2022-09-22T10:33:49.878Z,1.4
2022-09-22T10:48:49.478Z,1.01
2022-09-22T11:33:51.361Z,1.03
2022-09-22T11:48:50.485Z,1.39
2022-09-22T12:03:48.939Z,1.9
2022-09-22T12:18:49.005Z,1.88
2022-09-22T12:33:49.620Z,1.51
2022-09-22T12:48:50.033Z,1.37
2022-09-22T13:03:48.794Z,1.29
2022-09-22T13:18:48.956Z,1.12
2022-09-22T13:33:50.990Z,1.09
2022-09-22T13:48:49.279Z,1.48
2022-09-22T14:03:49.233Z,2.59
2022-09-22T14:18:48.790Z,2.23
2022-09-22T14:33:49.055Z,2.4
2022-09-22T14:48:49.239Z,2.14
2022-09-22T15:03:49.010Z,4.75
2022-09-22T15:18:48.371Z,2.19
2022-09-22T15:33:49.073Z,2.82
2022-09-22T15:48:48.996Z,1.84
2022-09-22T16:03:48.863Z,1.64
2022-09-22T16:18:48.769Z,2.25
2022-09-22T16:33:48.906Z,2.93
2022-09-22T16:48:49.062Z,1.47
2022-09-22T17:03:48.500Z,2.46
2022-09-22T17:18:48.538Z,3.36
2022-09-22T17:48:49.132Z,4.57
2022-09-22T18:03:48.775Z,7.55
2022-09-22T18:18:49.200Z,7.62
2022-09-22T18:33:48.542Z,12.74
2022-09-22T18:48:49.223Z,7
2022-09-22T19:03:48.503Z,11.84
2022-09-22T19:18:48.562Z,10.79
2022-09-22T19:33:48.810Z,9.7
2022-09-22T19:48:49.215Z,10.24
2022-09-22T20:03:48.553Z,9.6
2022-09-22T20:18:49.246Z,8.23
2022-09-22T20:33:48.592Z,5.6
2022-09-22T20:48:48.834Z,4.47
2022-09-22T21:03:48.919Z,9.93
2022-09-22T21:18:48.478Z,8.62
2022-09-22T21:33:48.796Z,6.03
2022-09-22T21:48:48.466Z,8.33
2022-09-22T22:03:49.240Z,4.22
2022-09-22T22:18:49.089Z,3.96
2022-09-22T22:33:49.031Z,3.58
2022-09-22T22:48:49.030Z,3.09
2022-09-22T23:03:48.971Z,2.74
2022-09-22T23:18:48.848Z,2.9
2022-09-22T23:33:48.745Z,2.75
2022-09-22T23:48:48.699Z,2.98
